Time;durP1;ratioP1;P1;durP2;ratioP2;P2;SDS_P1;SDS_P2;PMS_P1;PMS_P2;Temp;Humidity;BMP_temperature;BMP_pressure;BME280_temperature;BME280_humidity;BME280_pressure;Samples;Min_cycle;Max_cycle;Signal;HPM_P1;HPM_P2
2022/11/07 00:00:24;;;;;;;;;;;;;;;5.49;100.00;100319.64;1685936;85;20631;-85
2022/11/07 00:02:52;;;;;;;;;;;;;;;5.50;100.00;100327.91;1685607;85;20496;-84
2022/11/07 00:05:19;;;;;;;;;;;;;;;5.50;100.00;100326.61;1686670;85;21231;-84
2022/11/07 00:07:45;;;;;;;;;;;;;;;5.51;100.00;100320.50;1692958;83;20228;-85
2022/11/07 00:10:13;;;;;;;;;;;;;;;5.53;100.00;100333.14;1706044;83;20200;-83
2022/11/07 00:12:40;;;;;;;;;;;;;;;5.54;100.00;100327.03;1712552;83;20514;-85
2022/11/07 00:15:08;;;;;;;;;;;;;;;5.56;100.00;100328.33;1714336;83;20551;-86
2022/11/07 00:17:35;;;;;;;;;;;;;;;5.57;100.00;100327.47;1714192;83;21793;-86
2022/11/07 00:20:01;;;;;;;;;;;;;;;5.55;100.00;100322.25;1717723;83;20224;-85
2022/11/07 00:22:29;;;;;;;;;;;;;;;5.56;100.00;100322.70;1708779;83;20144;-85
2022/11/07 00:24:57;;;;;;;;;;;;;;;5.56;100.00;100320.50;1696530;84;20444;-86
2022/11/07 00:27:23;;;;;;;;;;;;;;;5.56;100.00;100320.09;1704325;83;20154;-85
2022/11/07 00:29:50;;;;;;;;;;;;;;;5.55;100.00;100314.42;1711425;84;21153;-85
2022/11/07 00:32:17;;;;;;;;;;;;;;;5.56;100.00;100310.95;1711460;83;20224;-82
2022/11/07 00:34:43;;;;;;;;;;;;;;;5.57;100.00;100311.81;1700923;83;20200;-83
2022/11/07 00:37:09;;;;;;;;;;;;;;;5.57;100.00;100311.36;1697126;84;20502;-85
2022/11/07 00:39:37;;;;;;;;;;;;;;;5.58;100.00;100311.81;1697554;84;20545;-77
2022/11/07 00:42:04;;;;;;;;;;;;;;;5.59;100.00;100304.39;1709049;80;21073;-79
2022/11/07 00:44:30;;;;;;;;;;;;;;;5.59;100.00;100308.31;1702096;81;20129;-78
2022/11/07 00:46:56;;;;;;;;;;;;;;;5.57;100.00;100299.62;1700273;81;20184;-85
2022/11/07 00:49:24;;;;;;;;;;;;;;;5.56;100.00;100300.52;1698078;83;20184;-85
2022/11/07 00:51:50;;;;;;;;;;;;;;;5.57;100.00;100300.92;1693965;84;20175;-85
2022/11/07 00:54:19;;;;;;;;;;;;;;;5.57;100.00;100300.92;1700903;83;20132;-83
2022/11/07 00:56:47;;;;;;;;;;;;;;;5.56;100.00;100296.59;1725384;83;20220;-76
2022/11/07 00:59:15;;;;;;;;;;;;;;;5.57;100.00;100291.78;1725763;83;20184;-86
2022/11/07 01:01:41;;;;;;;;;;;;;;;5.57;100.00;100291.78;1725619;83;20207;-86
2022/11/07 01:06:58;;;;;;;;;;;;;;;5.56;100.00;100291.37;1696448;84;21148;-83
2022/11/07 01:09:24;;;;;;;;;;;;;;;5.54;100.00;100283.95;1696892;84;20173;-86
2022/11/07 01:11:52;;;;;;;;;;;;;;;5.54;100.00;100283.95;1696741;84;20208;-86
2022/11/07 01:14:20;;;;;;;;;;;;;;;5.56;100.00;100279.62;1703174;83;20204;-84
2022/11/07 01:16:46;;;;;;;;;;;;;;;5.57;100.00;100277.87;1697054;83;20248;-83
2022/11/07 01:19:12;;;;;;;;;;;;;;;5.55;100.00;100271.80;1725270;83;21827;-88
2022/11/07 01:21:40;;;;;;;;;;;;;;;5.56;100.00;100273.52;1705060;82;20213;-87
2022/11/07 01:24:07;;;;;;;;;;;;;;;5.56;100.00;100273.52;1701743;84;20436;-87
2022/11/07 01:26:35;;;;;;;;;;;;;;;5.56;100.00;100273.10;1701602;84;20194;-89
2022/11/07 01:29:02;;;;;;;;;;;;;;;5.57;100.00;100268.29;1701816;84;20449;-84
2022/11/07 01:31:30;;;;;;;;;;;;;;;5.59;100.00;100265.23;1702336;84;21114;-86
2022/11/07 01:33:58;;;;;;;;;;;;;;;5.62;100.00;100260.91;1701485;84;20171;-87
2022/11/07 01:36:24;;;;;;;;;;;;;;;5.62;100.00;100262.21;1701868;84;20922;-87
2022/11/07 01:38:51;;;;;;;;;;;;;;;5.62;100.00;100258.30;1702021;84;20389;-88
2022/11/07 01:41:24;;;;;;;;;;;;;;;5.64;100.00;100260.02;1701614;84;20233;-86
2022/11/07 01:44:09;;;;;;;;;;;;;;;5.66;100.00;100258.70;1701356;84;21862;-82
2022/11/07 01:46:38;;;;;;;;;;;;;;;5.66;100.00;100262.62;1701868;84;20214;-85
2022/11/07 01:49:19;;;;;;;;;;;;;;;5.61;100.00;100250.02;1701584;84;20200;-83
2022/11/07 01:52:04;;;;;;;;;;;;;;;5.59;100.00;100256.09;1702055;84;20261;-83
2022/11/07 01:54:33;;;;;;;;;;;;;;;5.61;100.00;100248.71;1701035;84;20159;-85
2022/11/07 01:57:08;;;;;;;;;;;;;;;5.59;100.00;100241.73;1701562;84;22205;-85
2022/11/07 01:59:34;;;;;;;;;;;;;;;5.59;100.00;100240.44;1701740;84;20277;-83
2022/11/07 02:02:02;;;;;;;;;;;;;;;5.59;100.00;100239.12;1701791;84;20198;-87
2022/11/07 02:04:29;;;;;;;;;;;;;;;5.59;100.00;100237.83;1696910;84;20170;-87
2022/11/07 02:06:59;;;;;;;;;;;;;;;5.59;100.00;100235.22;1701742;84;20217;-88
2022/11/07 02:09:26;;;;;;;;;;;;;;;5.61;100.00;100234.35;1701253;84;21833;-89
2022/11/07 02:11:53;;;;;;;;;;;;;;;5.58;100.00;100241.33;1702045;84;20211;-87
2022/11/07 02:14:20;;;;;;;;;;;;;;;5.57;100.00;100223.06;1695808;84;20237;-85
2022/11/07 02:16:47;;;;;;;;;;;;;;;5.58;100.00;100219.55;1686200;84;20213;-87
2022/11/07 02:19:33;;;;;;;;;;;;;;;5.58;100.00;100220.45;1701828;84;20242;-85
2022/11/07 02:22:24;;;;;;;;;;;;;;;5.60;100.00;100212.61;1685905;84;21592;-85
2022/11/07 02:24:53;;;;;;;;;;;;;;;5.61;100.00;100213.02;1686985;84;20202;-88
2022/11/07 02:27:20;;;;;;;;;;;;;;;5.61;100.00;100214.33;1673981;85;20225;-84
2022/11/07 02:29:49;;;;;;;;;;;;;;;5.61;100.00;100213.02;1677285;84;20266;-83
2022/11/07 02:32:16;;;;;;;;;;;;;;;5.62;100.00;100220.44;1701818;84;20192;-85
2022/11/07 02:34:43;;;;;;;;;;;;;;;5.64;100.00;100223.91;1702277;84;21810;-86
2022/11/07 02:37:19;;;;;;;;;;;;;;;5.67;100.00;100219.98;1701841;84;20494;-82
2022/11/07 02:39:45;;;;;;;;;;;;;;;5.66;100.00;100213.02;1710242;83;20223;-83
2022/11/07 02:42:11;;;;;;;;;;;;;;;5.67;100.00;100213.46;1656683;85;20259;-82
2022/11/07 02:44:38;;;;;;;;;;;;;;;5.70;100.00;100216.03;1656643;86;20231;-83
2022/11/07 02:47:05;;;;;;;;;;;;;;;5.72;100.00;100216.92;1656706;86;21123;-83
2022/11/07 02:49:31;;;;;;;;;;;;;;;5.72;100.00;100215.17;1657157;85;20240;-84
2022/11/07 02:51:57;;;;;;;;;;;;;;;5.73;100.00;100217.33;1654124;85;20658;-85
2022/11/07 02:54:24;;;;;;;;;;;;;;;5.72;100.00;100212.56;1654463;86;20160;-86
2022/11/07 02:56:50;;;;;;;;;;;;;;;5.74;100.00;100215.17;1655560;86;20144;-84
2022/11/07 02:59:16;;;;;;;;;;;;;;;5.74;100.00;100217.33;1655991;86;21795;-85
2022/11/07 03:01:43;;;;;;;;;;;;;;;5.75;100.00;100222.14;1662602;85;20180;-84
2022/11/07 03:04:09;;;;;;;;;;;;;;;5.77;100.00;100222.99;1670558;84;20214;-84
2022/11/07 03:06:36;;;;;;;;;;;;;;;5.75;100.00;100230.83;1687588;83;20234;-85
2022/11/07 03:09:03;;;;;;;;;;;;;;;5.75;100.00;100229.52;1656309;86;20217;-84
2022/11/07 03:11:29;;;;;;;;;;;;;;;5.74;100.00;100228.22;1657452;85;21845;-82
2022/11/07 03:13:56;;;;;;;;;;;;;;;5.74;100.00;100225.61;1658242;85;20565;-84
2022/11/07 03:16:23;;;;;;;;;;;;;;;5.76;100.00;100234.30;1657762;86;20215;-85
2022/11/07 03:18:50;;;;;;;;;;;;;;;5.74;100.00;100236.91;1660079;85;20227;-84
2022/11/07 03:21:18;;;;;;;;;;;;;;;5.75;100.00;100237.80;1688230;83;20225;-85
2022/11/07 03:23:45;;;;;;;;;;;;;;;5.74;100.00;100237.36;1714612;83;21158;-84
2022/11/07 03:26:11;;;;;;;;;;;;;;;5.77;100.00;100238.66;1704180;84;20176;-84
2022/11/07 03:28:39;;;;;;;;;;;;;;;5.76;100.00;100239.52;1663931;86;20175;-82
2022/11/07 03:31:06;;;;;;;;;;;;;;;5.75;100.00;100239.11;1695363;84;20215;-83
2022/11/07 03:33:33;;;;;;;;;;;;;;;5.75;100.00;100232.58;1669360;84;20246;-82
2022/11/07 03:36:00;;;;;;;;;;;;;;;5.77;100.00;100231.69;1668340;86;21847;-84
2022/11/07 03:38:26;;;;;;;;;;;;;;;5.79;100.00;100223.85;1668784;86;20220;-87
2022/11/07 03:40:53;;;;;;;;;;;;;;;5.78;100.00;100226.02;1674945;84;20200;-87
2022/11/07 03:43:19;;;;;;;;;;;;;;;5.78;100.00;100219.48;1668471;86;20243;-88
2022/11/07 03:45:45;;;;;;;;;;;;;;;5.79;100.00;100214.71;1668355;86;20172;-85
2022/11/07 03:48:13;;;;;;;;;;;;;;;5.79;100.00;100214.71;1669008;86;20157;-86
2022/11/07 03:50:40;;;;;;;;;;;;;;;5.77;100.00;100212.10;1679996;84;20147;-85
2022/11/07 03:53:07;;;;;;;;;;;;;;;5.76;100.00;100212.96;1696802;84;20187;-85
2022/11/07 03:55:33;;;;;;;;;;;;;;;5.77;100.00;100213.86;1696809;84;20234;-86
2022/11/07 03:58:00;;;;;;;;;;;;;;;5.80;100.00;100202.52;1696894;84;20210;-86
2022/11/07 04:00:26;;;;;;;;;;;;;;;5.81;100.00;100204.27;1696272;84;21124;-85
2022/11/07 04:02:53;;;;;;;;;;;;;;;5.80;100.00;100209.04;1696795;84;20183;-85
2022/11/07 04:05:19;;;;;;;;;;;;;;;5.81;100.00;100199.89;1696762;84;20223;-86
2022/11/07 04:07:47;;;;;;;;;;;;;;;5.82;100.00;100197.73;1696763;84;20222;-85
2022/11/07 04:10:14;;;;;;;;;;;;;;;5.82;100.00;100196.42;1696430;84;20231;-88
2022/11/07 04:17:55;;;;;;;;;;;;;;;5.84;100.00;100197.73;1696570;84;20195;-86
2022/11/07 04:20:21;;;;;;;;;;;;;;;5.84;100.00;100199.89;1680120;84;20567;-85
2022/11/07 04:22:47;;;;;;;;;;;;;;;5.84;100.00;100198.59;1689562;84;20214;-83
2022/11/07 04:25:14;;;;;;;;;;;;;;;5.85;100.00;100195.11;1688971;85;21132;-84
2022/11/07 04:27:43;;;;;;;;;;;;;;;5.86;100.00;100202.05;1690189;83;20218;-85
2022/11/07 04:30:18;;;;;;;;;;;;;;;5.85;100.00;100196.42;1689222;83;20236;-85
2022/11/07 04:32:49;;;;;;;;;;;;;;;5.86;100.00;100198.13;1689595;83;20182;-87
2022/11/07 04:35:16;;;;;;;;;;;;;;;5.88;100.00;100189.84;1688827;85;20210;-85
2022/11/07 04:37:42;;;;;;;;;;;;;;;5.90;100.00;100192.04;1689644;85;21151;-83
2022/11/07 04:40:09;;;;;;;;;;;;;;;5.89;100.00;100191.59;1690569;83;20376;-82
2022/11/07 04:42:36;;;;;;;;;;;;;;;5.87;100.00;100193.35;1703288;83;20535;-81
2022/11/07 04:45:03;;;;;;;;;;;;;;;5.87;100.00;100196.41;1693451;83;20241;-85
2022/11/07 04:47:30;;;;;;;;;;;;;;;5.88;100.00;100191.59;1689333;85;20225;-81
2022/11/07 04:49:56;;;;;;;;;;;;;;;5.86;100.00;100190.30;1692609;83;21664;-82
2022/11/07 04:52:22;;;;;;;;;;;;;;;5.85;100.00;100190.30;1707976;83;20435;-85
2022/11/07 04:54:49;;;;;;;;;;;;;;;5.85;100.00;100189.00;1694413;83;20208;-86
2022/11/07 04:57:16;;;;;;;;;;;;;;;5.83;100.00;100194.22;1698881;83;20202;-86
2022/11/07 04:59:43;;;;;;;;;;;;;;;5.84;100.00;100201.20;1698161;83;20210;-78
2022/11/07 05:02:10;;;;;;;;;;;;;;;5.84;100.00;100210.34;1696834;80;21146;-78
2022/11/07 05:04:38;;;;;;;;;;;;;;;5.83;100.00;100204.67;1692717;80;20179;-78
2022/11/07 05:07:05;;;;;;;;;;;;;;;5.85;100.00;100208.17;1691453;80;20263;-82
2022/11/07 05:09:33;;;;;;;;;;;;;;;5.88;100.00;100209.44;1689443;85;20214;-85
2022/11/07 05:12:01;;;;;;;;;;;;;;;5.89;100.00;100205.10;1691656;83;20224;-85
2022/11/07 05:14:30;;;;;;;;;;;;;;;5.89;100.00;100201.19;1718136;83;21099;-81
2022/11/07 05:16:56;;;;;;;;;;;;;;;5.90;100.00;100202.90;1718195;83;20631;-85
2022/11/07 05:19:22;;;;;;;;;;;;;;;5.91;100.00;100208.12;1706884;83;20212;-83
2022/11/07 05:23:10;;;;;;;;;;;;;;;5.92;100.00;100219.01;1699212;83;20252;-86
2022/11/07 05:24:19;;;;;;;;;;;;;;;5.92;100.00;100221.62;1714749;83;20216;-83
2022/11/07 05:26:46;;;;;;;;;;;;;;;5.91;100.00;100230.32;1718574;83;21128;-84
2022/11/07 05:29:12;;;;;;;;;;;;;;;5.91;100.00;100227.71;1716256;83;20228;-86
2022/11/07 05:31:38;;;;;;;;;;;;;;;5.93;100.00;100229.02;1703970;83;20217;-84
2022/11/07 05:34:05;;;;;;;;;;;;;;;5.92;100.00;100221.62;1706884;83;20146;-84
2022/11/07 05:36:31;;;;;;;;;;;;;;;5.93;100.00;100235.54;1696397;84;20199;-86
2022/11/07 05:38:57;;;;;;;;;;;;;;;5.94;100.00;100226.39;1690337;85;21776;-85
2022/11/07 05:41:23;;;;;;;;;;;;;;;5.97;100.00;100244.26;1695557;83;20375;-84
2022/11/07 05:43:50;;;;;;;;;;;;;;;5.97;100.00;100235.12;1713584;83;20222;-87
2022/11/07 05:46:17;;;;;;;;;;;;;;;5.95;100.00;100232.48;1688025;85;20227;-87
2022/11/07 05:48:43;;;;;;;;;;;;;;;5.95;100.00;100237.29;1687406;83;20206;-86
2022/11/07 05:51:09;;;;;;;;;;;;;;;5.98;100.00;100235.56;1702022;83;22368;-86
2022/11/07 05:53:35;;;;;;;;;;;;;;;5.99;100.00;100235.56;1713270;83;20248;-84
2022/11/07 05:56:02;;;;;;;;;;;;;;;6.00;99.96;100237.72;1719076;83;20203;-78
2022/11/07 05:58:28;;;;;;;;;;;;;;;6.00;99.85;100238.61;1713386;83;20678;-80
2022/11/07 06:01:01;;;;;;;;;;;;;;;6.03;99.70;100235.10;1700781;82;20235;-78
2022/11/07 06:03:28;;;;;;;;;;;;;;;6.03;99.55;100242.94;1708888;84;21172;-81
2022/11/07 06:05:54;;;;;;;;;;;;;;;6.02;99.56;100238.16;1709741;84;20212;-80
2022/11/07 06:08:21;;;;;;;;;;;;;;;6.01;99.17;100240.33;1709686;84;21016;-82
2022/11/07 06:10:48;;;;;;;;;;;;;;;5.99;98.99;100229.03;1703859;83;20532;-83
2022/11/07 06:13:15;;;;;;;;;;;;;;;6.01;99.10;100225.11;1657563;85;20214;-79
2022/11/07 06:15:43;;;;;;;;;;;;;;;6.01;99.01;100223.80;1675131;85;20505;-83
2022/11/07 06:18:13;;;;;;;;;;;;;;;6.01;98.90;100226.41;1689983;85;20196;-80
2022/11/07 06:20:40;;;;;;;;;;;;;;;6.03;98.76;100235.10;1695300;83;20214;-81
2022/11/07 06:23:07;;;;;;;;;;;;;;;6.02;98.66;100230.74;1707296;83;20222;-77
2022/11/07 06:25:33;;;;;;;;;;;;;;;6.00;98.60;100235.11;1709896;84;20216;-75
2022/11/07 06:28:01;;;;;;;;;;;;;;;6.00;98.75;100245.56;1715332;83;21175;-78
2022/11/07 06:30:28;;;;;;;;;;;;;;;6.01;98.73;100240.33;1709749;84;20213;-77
2022/11/07 06:32:54;;;;;;;;;;;;;;;6.04;98.63;100240.33;1707745;83;20125;-82
2022/11/07 06:35:21;;;;;;;;;;;;;;;6.05;98.49;100238.57;1719107;83;20221;-79
2022/11/07 06:37:48;;;;;;;;;;;;;;;6.05;98.32;100246.41;1704104;83;20135;-81
2022/11/07 06:40:15;;;;;;;;;;;;;;;6.05;98.32;100252.94;1692033;84;21371;-80
2022/11/07 06:42:43;;;;;;;;;;;;;;;6.08;98.02;100246.40;1710441;83;20216;-83
2022/11/07 06:45:10;;;;;;;;;;;;;;;6.09;97.95;100242.92;1721264;83;20223;-76
2022/11/07 06:47:37;;;;;;;;;;;;;;;6.06;97.88;100248.16;1716423;83;20145;-79
2022/11/07 06:50:04;;;;;;;;;;;;;;;6.06;97.90;100245.55;1699671;83;20210;-82
2022/11/07 06:52:31;;;;;;;;;;;;;;;6.06;97.81;100242.94;1720448;83;21149;-83
2022/11/07 06:54:57;;;;;;;;;;;;;;;6.07;97.70;100248.56;1716834;83;20173;-81
2022/11/07 06:57:24;;;;;;;;;;;;;;;6.07;97.78;100243.34;1711928;82;20220;-83
2022/11/07 06:59:50;;;;;;;;;;;;;;;6.08;97.72;100243.78;1702501;82;20168;-81
2022/11/07 07:02:18;;;;;;;;;;;;;;;6.09;97.64;100245.09;1701783;83;20245;-79
2022/11/07 07:04:47;;;;;;;;;;;;;;;6.12;97.53;100251.61;1719922;83;21188;-79
2022/11/07 07:07:13;;;;;;;;;;;;;;;6.13;97.55;100249.86;1698877;83;20205;-79
2022/11/07 07:09:40;;;;;;;;;;;;;;;6.15;97.33;100248.09;1705813;82;20214;-81
2022/11/07 07:12:08;;;;;;;;;;;;;;;6.15;97.29;100242.88;1723056;82;21185;-78
2022/11/07 07:14:35;;;;;;;;;;;;;;;6.18;97.04;100250.70;1719282;83;20232;-80
2022/11/07 07:17:01;;;;;;;;;;;;;;;6.18;96.85;100253.31;1719817;83;21148;-79
2022/11/07 07:19:28;;;;;;;;;;;;;;;6.17;96.91;100253.31;1720326;83;20200;-81
2022/11/07 07:21:54;;;;;;;;;;;;;;;6.16;96.74;100256.38;1703056;83;20237;-81
2022/11/07 07:24:20;;;;;;;;;;;;;;;6.16;96.75;100253.77;1689513;83;20345;-80
2022/11/07 07:26:46;;;;;;;;;;;;;;;6.18;96.73;100255.92;1693375;83;20358;-80
2022/11/07 07:29:13;;;;;;;;;;;;;;;6.16;96.58;100256.38;1692566;83;21136;-80
2022/11/07 07:31:39;;;;;;;;;;;;;;;6.17;96.69;100262.05;1712293;83;20259;-78
2022/11/07 07:34:06;;;;;;;;;;;;;;;6.18;96.57;100252.01;1692675;83;20219;-80
2022/11/07 07:36:34;;;;;;;;;;;;;;;6.19;96.45;100253.76;1688847;83;20140;-81
2022/11/07 07:39:00;;;;;;;;;;;;;;;6.20;96.51;100250.25;1689807;83;20544;-82
2022/11/07 07:41:26;;;;;;;;;;;;;;;6.21;96.48;100250.69;1709302;83;21164;-81
2022/11/07 07:43:53;;;;;;;;;;;;;;;6.20;96.39;100250.25;1689924;83;20254;-81
2022/11/07 07:46:21;;;;;;;;;;;;;;;6.23;96.41;100258.53;1689560;83;20555;-80
2022/11/07 07:48:47;;;;;;;;;;;;;;;6.25;96.32;100255.45;1703454;83;20438;-81
2022/11/07 07:51:14;;;;;;;;;;;;;;;6.24;96.24;100257.22;1695554;83;20224;-81
2022/11/07 07:53:40;;;;;;;;;;;;;;;6.23;96.17;100257.22;1700094;83;21498;-80
2022/11/07 07:56:06;;;;;;;;;;;;;;;6.22;96.22;100256.36;1717226;83;20200;-80
2022/11/07 07:58:34;;;;;;;;;;;;;;;6.23;96.37;100259.39;1704822;83;20439;-81
2022/11/07 08:01:08;;;;;;;;;;;;;;;6.25;96.59;100256.31;1711730;83;20216;-81
2022/11/07 08:03:30;;;;;;;;;;;;;;;6.25;96.53;100255.02;1701857;83;20213;-78
2022/11/07 08:05:57;;;;;;;;;;;;;;;6.24;96.47;100257.22;1692394;83;21110;-80
2022/11/07 08:08:25;;;;;;;;;;;;;;;6.24;96.59;100257.22;1700587;83;20476;-79
2022/11/07 08:10:54;;;;;;;;;;;;;;;6.27;96.69;100258.52;1697954;83;20170;-80
2022/11/07 08:13:23;;;;;;;;;;;;;;;6.27;96.73;100263.73;1706136;83;20557;-79
2022/11/07 08:15:50;;;;;;;;;;;;;;;6.23;96.71;100259.39;1700338;83;20479;-80
2022/11/07 08:18:18;;;;;;;;;;;;;;;6.22;96.92;100262.89;1694589;83;21105;-79
2022/11/07 08:20:48;;;;;;;;;;;;;;;6.20;96.83;100261.15;1706494;83;20216;-80
2022/11/07 08:23:15;;;;;;;;;;;;;;;6.18;97.13;100263.77;1715454;83;20543;-79
2022/11/07 08:25:41;;;;;;;;;;;;;;;6.17;97.35;100263.36;1700600;83;20190;-80
2022/11/07 08:28:09;;;;;;;;;;;;;;;6.17;97.49;100262.05;1692434;83;20474;-83
2022/11/07 08:30:35;;;;;;;;;;;;;;;6.16;97.48;100257.69;1705041;83;21190;-83
2022/11/07 08:33:02;;;;;;;;;;;;;;;6.12;97.58;100269.90;1697601;83;20207;-78
2022/11/07 08:35:29;;;;;;;;;;;;;;;6.10;97.75;100261.63;1702239;83;20224;-80
2022/11/07 08:37:57;;;;;;;;;;;;;;;6.06;97.72;100263.83;1698493;83;20151;-80
2022/11/07 08:40:24;;;;;;;;;;;;;;;6.02;98.05;100267.31;1695938;83;20238;-82
2022/11/07 08:42:51;;;;;;;;;;;;;;;5.98;98.27;100253.84;1707275;82;21205;-79
2022/11/07 08:45:17;;;;;;;;;;;;;;;5.95;98.63;100249.45;1678913;84;20232;-80
2022/11/07 08:47:44;;;;;;;;;;;;;;;5.93;98.99;100253.41;1700013;84;20249;-79
2022/11/07 08:50:10;;;;;;;;;;;;;;;5.93;99.26;100253.83;1684961;83;20232;-78
2022/11/07 08:52:37;;;;;;;;;;;;;;;5.93;99.69;100259.05;1689208;82;20257;-79
2022/11/07 08:55:04;;;;;;;;;;;;;;;5.89;99.94;100254.28;1717876;83;21649;-80
2022/11/07 08:57:31;;;;;;;;;;;;;;;5.88;100.00;100252.53;1727778;82;20214;-79
2022/11/07 08:59:57;;;;;;;;;;;;;;;5.87;100.00;100250.81;1723281;82;20449;-79
2022/11/07 09:02:23;;;;;;;;;;;;;;;5.85;100.00;100246.03;1725331;82;20235;-81
2022/11/07 09:04:50;;;;;;;;;;;;;;;5.83;100.00;100241.23;1689453;84;20221;-82
2022/11/07 09:07:16;;;;;;;;;;;;;;;5.82;100.00;100240.82;1693693;84;21784;-81
2022/11/07 09:09:43;;;;;;;;;;;;;;;5.82;100.00;100238.66;1711621;83;20192;-80
2022/11/07 09:12:09;;;;;;;;;;;;;;;5.83;100.00;100236.01;1697682;83;20931;-79
2022/11/07 09:14:36;;;;;;;;;;;;;;;5.84;100.00;100236.90;1708035;83;20202;-79
2022/11/07 09:17:03;;;;;;;;;;;;;;;5.86;100.00;100238.61;1707990;83;20247;-78
2022/11/07 09:19:30;;;;;;;;;;;;;;;5.89;100.00;100232.52;1709674;83;21151;-78
2022/11/07 09:21:57;;;;;;;;;;;;;;;5.92;100.00;100235.98;1707491;83;20192;-79
2022/11/07 09:24:23;;;;;;;;;;;;;;;5.93;100.00;100236.84;1693417;83;20231;-80
2022/11/07 09:26:50;;;;;;;;;;;;;;;5.89;100.00;100232.08;1713051;83;20145;-81
2022/11/07 09:29:16;;;;;;;;;;;;;;;5.88;100.00;100231.63;1716510;83;20557;-82
2022/11/07 09:31:42;;;;;;;;;;;;;;;5.86;100.00;100230.78;1702432;83;21141;-82
2022/11/07 09:34:09;;;;;;;;;;;;;;;5.84;100.00;100233.84;1688774;85;20579;-81
2022/11/07 09:36:35;;;;;;;;;;;;;;;5.81;100.00;100227.77;1688764;85;20206;-82
2022/11/07 09:39:01;;;;;;;;;;;;;;;5.76;100.00;100234.30;1689109;85;20199;-80
2022/11/07 09:41:48;;;;;;;;;;;;;;;5.73;100.00;100229.08;1700720;82;20526;-80
2022/11/07 09:44:24;;;;;;;;;;;;;;;5.73;100.00;100229.08;1700476;82;21118;-84
2022/11/07 09:46:57;;;;;;;;;;;;;;;5.77;100.00;100224.30;1702309;82;20522;-85
2022/11/07 09:49:27;;;;;;;;;;;;;;;5.81;100.00;100222.09;1717743;82;20174;-82
2022/11/07 09:52:18;;;;;;;;;;;;;;;5.83;100.00;100220.34;1718263;82;20232;-86
2022/11/07 09:54:49;;;;;;;;;;;;;;;5.85;100.00;100208.17;1703393;82;20706;-83
2022/11/07 09:57:17;;;;;;;;;;;;;;;5.89;100.00;100203.80;1713026;82;21258;-81
2022/11/07 09:59:54;;;;;;;;;;;;;;;5.90;100.00;100197.67;1730514;82;20226;-85
2022/11/07 10:02:23;;;;;;;;;;;;;;;5.90;100.00;100199.87;1728169;82;20206;-83
2022/11/07 10:04:53;;;;;;;;;;;;;;;5.90;100.00;100195.95;1731706;82;20190;-85
2022/11/07 10:07:38;;;;;;;;;;;;;;;5.92;100.00;100192.89;1722264;82;20242;-86
2022/11/07 10:10:24;;;;;;;;;;;;;;;5.94;100.00;100189.83;1714475;82;21818;-80
2022/11/07 10:13:07;;;;;;;;;;;;;;;5.92;100.00;100187.67;1719480;82;20175;-85
2022/11/07 10:15:57;;;;;;;;;;;;;;;5.90;100.00;100182.89;1723396;82;20249;-86
2022/11/07 10:18:33;;;;;;;;;;;;;;;5.91;100.00;100186.37;1692334;84;20161;-80
2022/11/07 10:21:21;;;;;;;;;;;;;;;5.89;100.00;100180.29;1692355;83;20420;-78
2022/11/07 10:23:54;;;;;;;;;;;;;;;5.86;100.00;100181.16;1698594;80;21097;-81
2022/11/07 10:26:22;;;;;;;;;;;;;;;5.85;100.00;100184.66;1691268;80;20320;-88
2022/11/07 10:28:58;;;;;;;;;;;;;;;5.87;100.00;100184.21;1698885;83;20199;-89
2022/11/07 10:31:31;;;;;;;;;;;;;;;5.87;100.00;100172.46;1688906;83;20193;-83
2022/11/07 10:34:03;;;;;;;;;;;;;;;5.86;100.00;100172.02;1696327;83;20168;-79
2022/11/07 10:36:31;;;;;;;;;;;;;;;5.83;100.00;100166.80;1707272;83;21143;-83
2022/11/07 10:39:00;;;;;;;;;;;;;;;5.84;100.00;100164.64;1700665;83;20182;-81
2022/11/07 10:41:29;;;;;;;;;;;;;;;5.86;100.00;100157.66;1693982;83;20197;-82
2022/11/07 10:44:06;;;;;;;;;;;;;;;5.86;100.00;100155.48;1710649;83;20355;-82
2022/11/07 10:46:37;;;;;;;;;;;;;;;5.86;100.00;100154.19;1703642;83;20244;-82
2022/11/07 10:49:05;;;;;;;;;;;;;;;5.85;100.00;100154.63;1700381;83;22215;-82
2022/11/07 10:51:40;;;;;;;;;;;;;;;5.85;100.00;100153.33;1716410;83;20208;-82
2022/11/07 10:54:06;;;;;;;;;;;;;;;5.88;100.00;100149.81;1704986;83;20218;-85
2022/11/07 10:56:45;;;;;;;;;;;;;;;5.87;100.00;100152.87;1714598;83;20154;-83
2022/11/07 10:59:13;;;;;;;;;;;;;;;5.85;100.00;100153.33;1701821;83;20203;-82
2022/11/07 11:01:40;;;;;;;;;;;;;;;5.83;100.00;100149.83;1696744;83;21818;-86
2022/11/07 11:04:07;;;;;;;;;;;;;;;5.84;100.00;100152.02;1695999;83;20686;-83
2022/11/07 11:06:34;;;;;;;;;;;;;;;5.80;99.87;100148.56;1711963;83;20208;-86
2022/11/07 11:09:00;;;;;;;;;;;;;;;5.76;99.66;100146.83;1693954;83;20260;-82
2022/11/07 11:11:32;;;;;;;;;;;;;;;5.76;99.82;100150.74;1703755;83;20372;-83
2022/11/07 11:14:05;;;;;;;;;;;;;;;5.76;99.74;100143.77;1691942;83;21193;-82
2022/11/07 11:16:37;;;;;;;;;;;;;;;5.78;99.75;100138.54;1705871;83;20232;-86
2022/11/07 11:19:05;;;;;;;;;;;;;;;5.81;99.84;100144.20;1699547;83;20224;-83
2022/11/07 11:21:40;;;;;;;;;;;;;;;5.82;99.75;100136.36;1689738;83;20253;-80
2022/11/07 11:24:27;;;;;;;;;;;;;;;5.84;99.55;100135.91;1716908;83;20972;-83
2022/11/07 11:26:53;;;;;;;;;;;;;;;5.86;99.48;100138.52;1713143;83;21503;-83
2022/11/07 11:29:44;;;;;;;;;;;;;;;5.88;99.36;100134.14;1711422;83;20223;-82
2022/11/07 11:32:20;;;;;;;;;;;;;;;5.89;98.89;100135.44;1695523;83;20204;-82
2022/11/07 11:35:15;;;;;;;;;;;;;;;5.88;98.27;100135.00;1689477;83;20171;-84
2022/11/07 11:37:43;;;;;;;;;;;;;;;5.86;98.22;100128.92;1691866;83;20222;-81
2022/11/07 11:40:16;;;;;;;;;;;;;;;5.85;98.08;100131.13;1694252;83;21145;-82
2022/11/07 11:42:52;;;;;;;;;;;;;;;5.87;98.06;100126.75;1691554;83;20230;-80
2022/11/07 11:45:41;;;;;;;;;;;;;;;5.89;97.76;100122.39;1688885;85;20218;-81
2022/11/07 11:48:17;;;;;;;;;;;;;;;5.91;97.61;100119.77;1705252;83;20201;-82
2022/11/07 11:50:46;;;;;;;;;;;;;;;5.91;97.44;100108.02;1679658;83;20137;-78
2022/11/07 11:53:15;;;;;;;;;;;;;;;5.91;96.92;100115.85;1697099;83;21154;-82
2022/11/07 11:55:45;;;;;;;;;;;;;;;5.90;96.56;100107.16;1693764;83;20171;-80
2022/11/07 11:58:22;;;;;;;;;;;;;;;5.89;96.34;100106.72;1688982;85;20203;-80
2022/11/07 12:00:53;;;;;;;;;;;;;;;5.88;96.24;100112.80;1699893;83;20221;-81
2022/11/07 12:03:35;;;;;;;;;;;;;;;5.86;95.93;100110.64;1702227;83;20789;-81
2022/11/07 12:06:14;;;;;;;;;;;;;;;5.84;95.49;100113.71;1695458;83;21122;-82
2022/11/07 12:08:50;;;;;;;;;;;;;;;5.83;95.67;100105.44;1717435;83;20205;-82
2022/11/07 12:11:39;;;;;;;;;;;;;;;5.83;95.73;100110.66;1701723;83;20186;-81
2022/11/07 12:14:12;;;;;;;;;;;;;;;5.84;95.68;100110.24;1713285;83;20281;-79
2022/11/07 12:16:45;;;;;;;;;;;;;;;5.87;95.62;100112.39;1705010;83;21072;-79
2022/11/07 12:19:21;;;;;;;;;;;;;;;5.87;95.25;100107.62;1709339;83;20894;-77
2022/11/07 12:22:00;;;;;;;;;;;;;;;5.86;95.04;100099.34;1698399;83;20199;-82
2022/11/07 12:24:36;;;;;;;;;;;;;;;5.86;95.15;100104.11;1717347;83;20282;-82
2022/11/07 12:27:33;;;;;;;;;;;;;;;5.90;95.00;100103.23;1698087;83;20231;-82
2022/11/07 12:30:23;;;;;;;;;;;;;;;5.93;95.06;100102.34;1690635;83;20223;-83
2022/11/07 12:33:14;;;;;;;;;;;;;;;5.95;95.07;100104.48;1694487;83;21125;-82
2022/11/07 12:35:44;;;;;;;;;;;;;;;5.97;94.67;100100.59;1702648;83;20276;-81
2022/11/07 12:38:17;;;;;;;;;;;;;;;5.99;94.75;100098.87;1704898;83;20200;-83
2022/11/07 12:41:11;;;;;;;;;;;;;;;6.01;94.66;100096.66;1709243;83;20217;-83
2022/11/07 12:43:45;;;;;;;;;;;;;;;6.03;94.50;100092.73;1698647;83;20214;-83
2022/11/07 12:46:36;;;;;;;;;;;;;;;6.03;94.20;100091.42;1695977;83;21273;-82
2022/11/07 12:49:21;;;;;;;;;;;;;;;6.03;93.96;100084.89;1693346;83;20215;-84
2022/11/07 12:52:25;;;;;;;;;;;;;;;6.06;93.28;100083.58;1737757;82;20205;-81
2022/11/07 12:54:59;;;;;;;;;;;;;;;6.07;93.36;100087.90;1710032;83;20157;-84
2022/11/07 12:57:29;;;;;;;;;;;;;;;6.10;93.46;100082.66;1695531;83;20237;-84
2022/11/07 13:02:56;;;;;;;;;;;;;;;6.16;93.37;100082.62;1692528;83;20162;-81